Alstead, NH (03602)

3:57 PM EST on January 29, 2015 (GMT -0500)
Charlestown-Langdon | Change Station
CLOSE
Current Station
Personal Weather Station
Location: Charlestown, NH
Elevation: 505 ft
Nearby Weather Stations
Active Advisory: Winter Weather Advisory

Elev 505 ft 43.17 °N, 72.41 °W | Updated 3 minutes ago

Clear
Clear
30.9 °F
Feels Like 31 °F
N
2.7
Wind Variable Wind from SSE

Today
High -- | Low -- °F
--% Chance of Precip.
Yesterday
High -- | Low -- °F
Precip. -- in
7:07 AM 4:57 PM
Waxing Gibbous, 77% visible
Pressure 30.12 in
Visibility 10.0 miles
Clouds Clear
Windchill 31 °F
Dew Point 14 °F
Humidity 49%
Rainfall 0.02 in
Snow Depth Not available.
UV 1 out of 12
Pollen .10 out of 12
Air Quality Not available.
Flu Activity Not available.
METAR KEEN 292035Z AUTO 22005KT 10SM CLR 01/M17 A3012 RMK AO1

More Conditions Fewer Conditions

Pressure 30.12 in
Visibility 10.0 miles
Clouds Clear
Windchill 31 °F
Dew Point 14 °F
Humidity 49%
Rainfall 0.02 in
Snow Depth Not available.
UV 1 out of 12
Pollen .10 out of 12
Air Quality Not available.
Flu Activity Not available.
METAR KEEN 292035Z AUTO 22005KT 10SM CLR 01/M17 A3012 RMK AO1

More Conditions Fewer Conditions

10-Day Weather Forecast

Almanac

Astronomy

Jan. 29, 2015 Rise Set
Actual Time
Civil Twilight
Nautical Twilight
Astronomical Twilight
Moon
Length of Visible Light
Length of Day
Tomorrow will be .
, % of the Moon is Illuminated

Today's Extremes

State Highs State Lows

Community

WunderPhotos

Upload Photos

1,791,594 photos uploaded!

WunderBlogs® & News

Nearby

Air Quality

  Air Quality AQ Index Pollutant
Not available.

Snow Depth

Station Depth Elevation

Earthquake Activity

City Distance Mag. Time & Date
Minimum magnitude displayed is 2.5.

Coastal Water Temperatures

Place Temperature

Nearby Weather Stations